sensor_id;sensor_type;location;lat;lon;timestamp;pressure;altitude;pressure_sealevel;temperature;humidity
49835;BME280;35729;52.090;13.162;2023-11-21T00:00:10;100293.09;;;7.18;100.00
49835;BME280;35729;52.090;13.162;2023-11-21T00:02:40;100294.84;;;7.17;100.00
49835;BME280;35729;52.090;13.162;2023-11-21T00:05:09;100294.84;;;7.17;100.00
49835;BME280;35729;52.090;13.162;2023-11-21T00:07:39;100293.09;;;7.16;100.00
49835;BME280;35729;52.090;13.162;2023-11-21T00:10:09;100292.25;;;7.16;100.00
49835;BME280;35729;52.090;13.162;2023-11-21T00:12:39;100296.63;;;7.14;100.00
49835;BME280;35729;52.090;13.162;2023-11-21T00:15:11;100302.72;;;7.14;100.00
49835;BME280;35729;52.090;13.162;2023-11-21T00:17:40;100301.84;;;7.15;100.00
49835;BME280;35729;52.090;13.162;2023-11-21T00:20:09;100307.91;;;7.16;100.00
49835;BME280;35729;52.090;13.162;2023-11-21T00:22:38;100305.31;;;7.16;100.00
49835;BME280;35729;52.090;13.162;2023-11-21T00:25:07;100307.91;;;7.16;100.00
49835;BME280;35729;52.090;13.162;2023-11-21T00:27:36;100306.16;;;7.16;100.00
49835;BME280;35729;52.090;13.162;2023-11-21T00:30:06;100301.84;;;7.15;100.00
49835;BME280;35729;52.090;13.162;2023-11-21T00:32:38;100305.31;;;7.16;100.00
49835;BME280;35729;52.090;13.162;2023-11-21T00:35:07;100301.84;;;7.14;100.00
49835;BME280;35729;52.090;13.162;2023-11-21T00:37:36;100300.97;;;7.15;100.00
49835;BME280;35729;52.090;13.162;2023-11-21T00:40:05;100317.50;;;7.15;100.00
49835;BME280;35729;52.090;13.162;2023-11-21T00:42:34;100307.06;;;7.15;100.00
49835;BME280;35729;52.090;13.162;2023-11-21T00:45:03;100315.75;;;7.14;100.00
49835;BME280;35729;52.090;13.162;2023-11-21T00:47:32;100311.41;;;7.15;100.00
49835;BME280;35729;52.090;13.162;2023-11-21T00:50:04;100313.16;;;7.14;100.00
49835;BME280;35729;52.090;13.162;2023-11-21T00:52:32;100312.28;;;7.14;100.00
49835;BME280;35729;52.090;13.162;2023-11-21T00:55:01;100310.56;;;7.13;100.00
49835;BME280;35729;52.090;13.162;2023-11-21T00:57:30;100314.88;;;7.14;100.00
49835;BME280;35729;52.090;13.162;2023-11-21T00:59:58;100323.59;;;7.14;100.00
49835;BME280;35729;52.090;13.162;2023-11-21T01:02:27;100321.00;;;7.13;100.00
49835;BME280;35729;52.090;13.162;2023-11-21T01:04:56;100313.19;;;7.13;100.00
49835;BME280;35729;52.090;13.162;2023-11-21T01:07:27;100325.31;;;7.14;100.00
49835;BME280;35729;52.090;13.162;2023-11-21T01:09:55;100324.53;;;7.10;100.00
49835;BME280;35729;52.090;13.162;2023-11-21T01:12:24;100325.38;;;7.11;100.00
49835;BME280;35729;52.090;13.162;2023-11-21T01:14:53;100337.53;;;7.12;100.00
49835;BME280;35729;52.090;13.162;2023-11-21T01:17:21;100329.72;;;7.12;100.00
49835;BME280;35729;52.090;13.162;2023-11-21T01:19:50;100328.84;;;7.11;100.00
49835;BME280;35729;52.090;13.162;2023-11-21T01:22:28;100335.81;;;7.11;100.00
49835;BME280;35729;52.090;13.162;2023-11-21T01:24:56;100335.81;;;7.11;100.00
49835;BME280;35729;52.090;13.162;2023-11-21T01:27:25;100338.41;;;7.11;100.00
49835;BME280;35729;52.090;13.162;2023-11-21T01:29:53;100338.41;;;7.11;100.00
49835;BME280;35729;52.090;13.162;2023-11-21T01:32:22;100333.22;;;7.09;100.00
49835;BME280;35729;52.090;13.162;2023-11-21T01:34:50;100333.22;;;7.09;100.00
49835;BME280;35729;52.090;13.162;2023-11-21T01:37:19;100334.97;;;7.10;100.00
49835;BME280;35729;52.090;13.162;2023-11-21T01:39:50;100339.31;;;7.08;100.00
49835;BME280;35729;52.090;13.162;2023-11-21T01:42:18;100340.19;;;7.09;100.00
49835;BME280;35729;52.090;13.162;2023-11-21T01:44:47;100342.78;;;7.09;100.00
49835;BME280;35729;52.090;13.162;2023-11-21T01:47:16;100340.19;;;7.09;100.00
49835;BME280;35729;52.090;13.162;2023-11-21T01:49:45;100336.72;;;7.08;100.00
49835;BME280;35729;52.090;13.162;2023-11-21T01:52:14;100346.28;;;7.09;100.00
49835;BME280;35729;52.090;13.162;2023-11-21T01:54:44;100347.16;;;7.08;100.00
49835;BME280;35729;52.090;13.162;2023-11-21T01:57:15;100355.00;;;7.07;100.00
49835;BME280;35729;52.090;13.162;2023-11-21T01:59:44;100343.69;;;7.06;100.00
49835;BME280;35729;52.090;13.162;2023-11-21T02:02:13;100348.06;;;7.06;100.00
49835;BME280;35729;52.090;13.162;2023-11-21T02:04:42;100355.00;;;7.07;100.00
49835;BME280;35729;52.090;13.162;2023-11-21T02:07:10;100358.50;;;7.06;100.00
49835;BME280;35729;52.090;13.162;2023-11-21T02:09:39;100368.94;;;7.06;100.00
49835;BME280;35729;52.090;13.162;2023-11-21T02:12:08;100356.75;;;7.05;100.00
49835;BME280;35729;52.090;13.162;2023-11-21T02:14:39;100359.34;;;7.06;100.00
49835;BME280;35729;52.090;13.162;2023-11-21T02:17:08;100368.94;;;7.06;100.00
49835;BME280;35729;52.090;13.162;2023-11-21T02:19:38;100372.41;;;7.05;100.00
49835;BME280;35729;52.090;13.162;2023-11-21T02:22:07;100370.69;;;7.04;100.00
49835;BME280;35729;52.090;13.162;2023-11-21T02:25:07;100376.78;;;7.04;100.00
49835;BME280;35729;52.090;13.162;2023-11-21T02:27:36;100369.81;;;7.05;100.00
49835;BME280;35729;52.090;13.162;2023-11-21T02:30:06;100368.97;;;7.04;100.00
49835;BME280;35729;52.090;13.162;2023-11-21T02:32:38;100363.72;;;7.03;100.00
49835;BME280;35729;52.090;13.162;2023-11-21T02:35:13;100375.06;;;7.03;100.00
49835;BME280;35729;52.090;13.162;2023-11-21T02:37:42;100368.13;;;7.00;100.00
49835;BME280;35729;52.090;13.162;2023-11-21T02:40:13;100372.47;;;7.01;100.00
49835;BME280;35729;52.090;13.162;2023-11-21T02:42:43;100374.19;;;7.01;100.00
49835;BME280;35729;52.090;13.162;2023-11-21T02:45:13;100377.69;;;7.01;100.00
49835;BME280;35729;52.090;13.162;2023-11-21T02:47:42;100372.47;;;7.01;100.00
49835;BME280;35729;52.090;13.162;2023-11-21T02:50:11;100375.06;;;7.01;100.00
49835;BME280;35729;52.090;13.162;2023-11-21T02:52:39;100375.06;;;7.01;100.00
49835;BME280;35729;52.090;13.162;2023-11-21T02:55:08;100375.94;;;7.02;100.00
49835;BME280;35729;52.090;13.162;2023-11-21T02:57:39;100385.50;;;7.01;100.00
49835;BME280;35729;52.090;13.162;2023-11-21T03:00:09;100386.38;;;7.00;100.00
49835;BME280;35729;52.090;13.162;2023-11-21T03:02:40;100398.66;;;6.94;100.00
49835;BME280;35729;52.090;13.162;2023-11-21T03:05:09;100398.78;;;6.83;100.00
49835;BME280;35729;52.090;13.162;2023-11-21T03:07:38;100397.16;;;6.73;100.00
49835;BME280;35729;52.090;13.162;2023-11-21T03:10:08;100402.44;;;6.66;100.00
49835;BME280;35729;52.090;13.162;2023-11-21T03:12:40;100402.50;;;6.60;100.00
49835;BME280;35729;52.090;13.162;2023-11-21T03:15:10;100403.44;;;6.53;100.00
49835;BME280;35729;52.090;13.162;2023-11-21T03:17:39;100411.34;;;6.45;100.00
49835;BME280;35729;52.090;13.162;2023-11-21T03:20:09;100407.94;;;6.39;100.00
49835;BME280;35729;52.090;13.162;2023-11-21T03:22:39;100414.06;;;6.31;100.00
49835;BME280;35729;52.090;13.162;2023-11-21T03:25:08;100416.72;;;6.27;100.00
49835;BME280;35729;52.090;13.162;2023-11-21T03:27:41;100418.56;;;6.17;100.00
49835;BME280;35729;52.090;13.162;2023-11-21T03:30:11;100426.44;;;6.09;100.00
49835;BME280;35729;52.090;13.162;2023-11-21T03:32:39;100433.44;;;6.01;100.00
49835;BME280;35729;52.090;13.162;2023-11-21T03:35:08;100424.81;;;5.93;100.00
49835;BME280;35729;52.090;13.162;2023-11-21T03:37:36;100425.69;;;5.88;100.00
49835;BME280;35729;52.090;13.162;2023-11-21T03:40:08;100436.13;;;5.85;100.00
49835;BME280;35729;52.090;13.162;2023-11-21T03:42:38;100433.56;;;5.84;100.00
49835;BME280;35729;52.090;13.162;2023-11-21T03:45:09;100435.31;;;5.80;100.00
49835;BME280;35729;52.090;13.162;2023-11-21T03:47:38;100438.81;;;5.78;100.00
49835;BME280;35729;52.090;13.162;2023-11-21T03:50:07;100446.63;;;5.75;100.00
49835;BME280;35729;52.090;13.162;2023-11-21T03:52:36;100453.56;;;5.74;100.00
49835;BME280;35729;52.090;13.162;2023-11-21T03:55:05;100457.03;;;5.75;100.00
49835;BME280;35729;52.090;13.162;2023-11-21T03:57:34;100460.50;;;5.72;100.00
49835;BME280;35729;52.090;13.162;2023-11-21T04:00:03;100457.06;;;5.68;100.00
49835;BME280;35729;52.090;13.162;2023-11-21T04:02:41;100464.03;;;5.68;100.00
49835;BME280;35729;52.090;13.162;2023-11-21T04:05:09;100465.75;;;5.66;100.00
49835;BME280;35729;52.090;13.162;2023-11-21T04:07:38;100469.25;;;5.62;100.00
49835;BME280;35729;52.090;13.162;2023-11-21T04:10:07;100471.88;;;5.55;100.00
49835;BME280;35729;52.090;13.162;2023-11-21T04:12:38;100472.81;;;5.50;100.00
49835;BME280;35729;52.090;13.162;2023-11-21T04:15:08;100482.34;;;5.46;100.00
49835;BME280;35729;52.090;13.162;2023-11-21T04:17:38;100485.84;;;5.44;100.00
49835;BME280;35729;52.090;13.162;2023-11-21T04:20:09;100490.19;;;5.38;100.00
49835;BME280;35729;52.090;13.162;2023-11-21T04:22:38;100493.66;;;5.34;100.00
49835;BME280;35729;52.090;13.162;2023-11-21T04:25:10;100509.31;;;5.31;100.00
49835;BME280;35729;52.090;13.162;2023-11-21T04:27:39;100504.13;;;5.28;100.00
49835;BME280;35729;52.090;13.162;2023-11-21T04:30:10;100507.56;;;5.29;100.00
49835;BME280;35729;52.090;13.162;2023-11-21T04:32:45;100510.19;;;5.29;100.00
49835;BME280;35729;52.090;13.162;2023-11-21T04:35:16;100516.22;;;5.29;100.00
49835;BME280;35729;52.090;13.162;2023-11-21T04:37:45;100520.59;;;5.29;100.00
49835;BME280;35729;52.090;13.162;2023-11-21T04:40:14;100527.53;;;5.28;100.00
49835;BME280;35729;52.090;13.162;2023-11-21T04:42:42;100527.53;;;5.25;100.00
49835;BME280;35729;52.090;13.162;2023-11-21T04:45:12;100529.25;;;5.23;100.00
49835;BME280;35729;52.090;13.162;2023-11-21T04:47:41;100529.28;;;5.21;100.00
49835;BME280;35729;52.090;13.162;2023-11-21T04:50:10;100533.59;;;5.18;100.00
49835;BME280;35729;52.090;13.162;2023-11-21T04:52:41;100535.38;;;5.16;100.00
49835;BME280;35729;52.090;13.162;2023-11-21T04:55:10;100539.69;;;5.14;100.00
49835;BME280;35729;52.090;13.162;2023-11-21T04:57:39;100551.81;;;5.12;100.00
49835;BME280;35729;52.090;13.162;2023-11-21T05:00:09;100555.31;;;5.09;100.00
49835;BME280;35729;52.090;13.162;2023-11-21T05:02:38;100556.19;;;5.10;100.00
49835;BME280;35729;52.090;13.162;2023-11-21T05:05:07;100553.56;;;5.06;100.00
49835;BME280;35729;52.090;13.162;2023-11-21T05:07:36;100555.34;;;5.04;100.00
49835;BME280;35729;52.090;13.162;2023-11-21T05:10:08;100560.53;;;5.01;100.00
49835;BME280;35729;52.090;13.162;2023-11-21T05:12:37;100564.00;;;5.00;100.00
49835;BME280;35729;52.090;13.162;2023-11-21T05:15:07;100570.09;;;4.99;100.00
49835;BME280;35729;52.090;13.162;2023-11-21T05:17:38;100566.59;;;4.97;100.00
49835;BME280;35729;52.090;13.162;2023-11-21T05:20:08;100566.63;;;4.94;100.00
49835;BME280;35729;52.090;13.162;2023-11-21T05:22:39;100564.88;;;4.93;100.00
49835;BME280;35729;52.090;13.162;2023-11-21T05:25:11;100579.63;;;4.89;100.00
49835;BME280;35729;52.090;13.162;2023-11-21T05:27:40;100579.63;;;4.88;100.00
49835;BME280;35729;52.090;13.162;2023-11-21T05:30:09;100579.63;;;4.88;100.00
49835;BME280;35729;52.090;13.162;2023-11-21T05:32:38;100587.41;;;4.85;100.00
49835;BME280;35729;52.090;13.162;2023-11-21T05:35:15;100581.34;;;4.84;100.00
49835;BME280;35729;52.090;13.162;2023-11-21T05:37:43;100589.16;;;4.80;100.00
49835;BME280;35729;52.090;13.162;2023-11-21T05:40:15;100592.59;;;4.79;100.00
49835;BME280;35729;52.090;13.162;2023-11-21T05:42:44;100604.75;;;4.78;100.00
49835;BME280;35729;52.090;13.162;2023-11-21T05:45:12;100601.28;;;4.76;100.00
49835;BME280;35729;52.090;13.162;2023-11-21T05:47:42;100607.34;;;4.73;100.00
49835;BME280;35729;52.090;13.162;2023-11-21T05:50:12;100609.94;;;4.72;100.00
49835;BME280;35729;52.090;13.162;2023-11-21T05:52:42;100613.41;;;4.71;100.00
49835;BME280;35729;52.090;13.162;2023-11-21T05:55:11;100611.69;;;4.68;100.00
49835;BME280;35729;52.090;13.162;2023-11-21T05:57:43;100615.13;;;4.67;100.00
49835;BME280;35729;52.090;13.162;2023-11-21T06:00:14;100621.22;;;4.68;100.00
49835;BME280;35729;52.090;13.162;2023-11-21T06:02:45;100624.69;;;4.67;100.00
49835;BME280;35729;52.090;13.162;2023-11-21T06:05:17;100631.59;;;4.63;100.00
49835;BME280;35729;52.090;13.162;2023-11-21T06:07:45;100643.72;;;4.61;100.00
49835;BME280;35729;52.090;13.162;2023-11-21T06:10:14;100635.91;;;4.60;100.00
49835;BME280;35729;52.090;13.162;2023-11-21T06:12:47;100647.19;;;4.55;100.00
49835;BME280;35729;52.090;13.162;2023-11-21T06:15:16;100644.56;;;4.51;100.00
49835;BME280;35729;52.090;13.162;2023-11-21T06:17:45;100651.50;;;4.49;100.00
49835;BME280;35729;52.090;13.162;2023-11-21T06:20:18;100651.50;;;4.46;100.00
49835;BME280;35729;52.090;13.162;2023-11-21T06:22:48;100654.97;;;4.46;100.00
49835;BME280;35729;52.090;13.162;2023-11-21T06:25:17;100665.34;;;4.48;100.00
49835;BME280;35729;52.090;13.162;2023-11-21T06:27:48;100670.56;;;4.48;100.00
49835;BME280;35729;52.090;13.162;2023-11-21T06:30:17;100675.75;;;4.48;100.00
49835;BME280;35729;52.090;13.162;2023-11-21T06:32:46;100687.84;;;4.46;100.00
49835;BME280;35729;52.090;13.162;2023-11-21T06:35:16;100689.59;;;4.45;100.00
49835;BME280;35729;52.090;13.162;2023-11-21T06:37:45;100689.59;;;4.44;100.00
49835;BME280;35729;52.090;13.162;2023-11-21T06:40:15;100681.81;;;4.45;100.00
49835;BME280;35729;52.090;13.162;2023-11-21T06:42:44;100693.94;;;4.49;100.00
49835;BME280;35729;52.090;13.162;2023-11-21T06:45:15;100693.06;;;4.50;100.00
49835;BME280;35729;52.090;13.162;2023-11-21T06:47:44;100692.19;;;4.45;100.00
49835;BME280;35729;52.090;13.162;2023-11-21T06:50:13;100700.00;;;4.44;100.00
49835;BME280;35729;52.090;13.162;2023-11-21T06:52:41;100707.75;;;4.42;100.00
49835;BME280;35729;52.090;13.162;2023-11-21T06:55:10;100705.16;;;4.40;100.00
49835;BME280;35729;52.090;13.162;2023-11-21T06:57:38;100716.41;;;4.38;100.00
49835;BME280;35729;52.090;13.162;2023-11-21T07:00:08;100706.88;;;4.37;100.00
49835;BME280;35729;52.090;13.162;2023-11-21T07:02:40;100707.75;;;4.36;100.00
49835;BME280;35729;52.090;13.162;2023-11-21T07:05:08;100711.22;;;4.36;100.00
49835;BME280;35729;52.090;13.162;2023-11-21T07:07:37;100716.41;;;4.32;100.00
49835;BME280;35729;52.090;13.162;2023-11-21T07:10:06;100722.44;;;4.29;100.00
49835;BME280;35729;52.090;13.162;2023-11-21T07:12:37;100725.03;;;4.28;100.00
49835;BME280;35729;52.090;13.162;2023-11-21T07:15:07;100731.09;;;4.25;100.00
49835;BME280;35729;52.090;13.162;2023-11-21T07:17:36;100728.47;;;4.22;100.00
49835;BME280;35729;52.090;13.162;2023-11-21T07:20:09;100732.81;;;4.18;100.00
49835;BME280;35729;52.090;13.162;2023-11-21T07:22:44;100739.72;;;4.15;100.00
49835;BME280;35729;52.090;13.162;2023-11-21T07:25:13;100739.69;;;4.12;100.00
49835;BME280;35729;52.090;13.162;2023-11-21T07:27:41;100745.72;;;4.11;100.00
49835;BME280;35729;52.090;13.162;2023-11-21T07:30:16;100744.88;;;4.08;100.00
49835;BME280;35729;52.090;13.162;2023-11-21T07:32:45;100746.63;;;4.10;100.00
49835;BME280;35729;52.090;13.162;2023-11-21T07:35:16;100753.53;;;4.11;100.00
49835;BME280;35729;52.090;13.162;2023-11-21T07:37:44;100756.13;;;4.09;100.00
49835;BME280;35729;52.090;13.162;2023-11-21T07:40:14;100747.44;;;4.04;100.00
49835;BME280;35729;52.090;13.162;2023-11-21T07:42:43;100748.28;;;4.01;100.00
49835;BME280;35729;52.090;13.162;2023-11-21T07:45:11;100761.28;;;3.98;100.00
49835;BME280;35729;52.090;13.162;2023-11-21T07:47:40;100758.69;;;3.98;100.00
49835;BME280;35729;52.090;13.162;2023-11-21T07:50:09;100759.53;;;3.99;100.00
49835;BME280;35729;52.090;13.162;2023-11-21T07:52:41;100763.00;;;4.01;100.00
49835;BME280;35729;52.090;13.162;2023-11-21T07:55:10;100768.16;;;3.99;100.00
49835;BME280;35729;52.090;13.162;2023-11-21T07:57:39;100766.47;;;4.01;100.00
49835;BME280;35729;52.090;13.162;2023-11-21T08:00:09;100766.47;;;4.01;100.00
49835;BME280;35729;52.090;13.162;2023-11-21T08:02:38;100768.22;;;4.02;100.00
49835;BME280;35729;52.090;13.162;2023-11-21T08:05:08;100770.81;;;4.04;100.00
49835;BME280;35729;52.090;13.162;2023-11-21T08:07:36;100763.91;;;4.06;100.00
49835;BME280;35729;52.090;13.162;2023-11-21T08:10:09;100773.41;;;4.02;100.00
49835;BME280;35729;52.090;13.162;2023-11-21T08:12:38;100771.66;;;4.00;100.00
49835;BME280;35729;52.090;13.162;2023-11-21T08:15:09;100772.50;;;4.00;100.00
49835;BME280;35729;52.090;13.162;2023-11-21T08:17:37;100779.44;;;4.01;100.00
49835;BME280;35729;52.090;13.162;2023-11-21T08:20:06;100789.81;;;3.98;100.00
49835;BME280;35729;52.090;13.162;2023-11-21T08:22:36;100784.59;;;3.97;100.00
49835;BME280;35729;52.090;13.162;2023-11-21T08:25:09;100785.50;;;3.97;100.00
49835;BME280;35729;52.090;13.162;2023-11-21T08:27:38;100793.28;;;3.96;100.00
49835;BME280;35729;52.090;13.162;2023-11-21T08:30:07;100793.25;;;3.94;100.00
49835;BME280;35729;52.090;13.162;2023-11-21T08:32:36;100792.38;;;3.92;100.00
49835;BME280;35729;52.090;13.162;2023-11-21T08:35:04;100796.69;;;3.90;100.00
49835;BME280;35729;52.090;13.162;2023-11-21T08:37:33;100803.63;;;3.89;100.00
49835;BME280;35729;52.090;13.162;2023-11-21T08:40:08;100807.91;;;3.89;100.00
49835;BME280;35729;52.090;13.162;2023-11-21T08:42:41;100810.50;;;3.86;100.00
49835;BME280;35729;52.090;13.162;2023-11-21T08:45:10;100807.03;;;3.85;100.00
49835;BME280;35729;52.090;13.162;2023-11-21T08:47:39;100805.28;;;3.83;100.00
49835;BME280;35729;52.090;13.162;2023-11-21T08:50:10;100808.75;;;3.85;100.00
49835;BME280;35729;52.090;13.162;2023-11-21T08:52:38;100815.66;;;3.83;100.00
49835;BME280;35729;52.090;13.162;2023-11-21T08:55:10;100818.25;;;3.78;100.00
49835;BME280;35729;52.090;13.162;2023-11-21T08:57:39;100829.47;;;3.77;100.00
49835;BME280;35729;52.090;13.162;2023-11-21T09:00:09;100825.13;;;3.74;100.00
49835;BME280;35729;52.090;13.162;2023-11-21T09:02:39;100827.72;;;3.74;100.00
49835;BME280;35729;52.090;13.162;2023-11-21T09:05:08;100830.31;;;3.74;100.00
49835;BME280;35729;52.090;13.162;2023-11-21T09:07:38;100833.78;;;3.77;100.00
49835;BME280;35729;52.090;13.162;2023-11-21T09:10:10;100839.00;;;3.81;100.00
49835;BME280;35729;52.090;13.162;2023-11-21T09:12:39;100839.91;;;3.83;100.00
49835;BME280;35729;52.090;13.162;2023-11-21T09:15:09;100845.94;;;3.82;100.00
49835;BME280;35729;52.090;13.162;2023-11-21T09:17:38;100860.66;;;3.82;100.00
49835;BME280;35729;52.090;13.162;2023-11-21T09:20:08;100858.94;;;3.82;100.00
49835;BME280;35729;52.090;13.162;2023-11-21T09:22:40;100871.06;;;3.83;100.00
49835;BME280;35729;52.090;13.162;2023-11-21T09:25:12;100869.31;;;3.84;100.00
49835;BME280;35729;52.090;13.162;2023-11-21T09:27:41;100869.31;;;3.84;100.00
49835;BME280;35729;52.090;13.162;2023-11-21T09:30:12;100865.00;;;3.84;100.00
49835;BME280;35729;52.090;13.162;2023-11-21T09:32:40;100869.34;;;3.87;100.00
49835;BME280;35729;52.090;13.162;2023-11-21T09:35:11;100880.59;;;3.84;100.00
49835;BME280;35729;52.090;13.162;2023-11-21T09:37:39;100872.75;;;3.83;100.00
49835;BME280;35729;52.090;13.162;2023-11-21T09:40:21;100878.78;;;3.79;100.00
49835;BME280;35729;52.090;13.162;2023-11-21T09:42:54;100877.03;;;3.76;100.00
49835;BME280;35729;52.090;13.162;2023-11-21T09:45:26;100886.56;;;3.75;100.00
49835;BME280;35729;52.090;13.162;2023-11-21T09:47:57;100889.13;;;3.74;100.00
49835;BME280;35729;52.090;13.162;2023-11-21T09:50:26;100891.72;;;3.74;100.00
49835;BME280;35729;52.090;13.162;2023-11-21T09:52:57;100894.31;;;3.74;100.00
49835;BME280;35729;52.090;13.162;2023-11-21T09:55:29;100895.19;;;3.74;100.00
49835;BME280;35729;52.090;13.162;2023-11-21T09:58:02;100900.38;;;3.74;100.00
49835;BME280;35729;52.090;13.162;2023-11-21T10:00:33;100901.25;;;3.73;100.00
49835;BME280;35729;52.090;13.162;2023-11-21T10:03:02;100907.31;;;3.75;100.00
49835;BME280;35729;52.090;13.162;2023-11-21T10:05:30;100903.00;;;3.76;100.00
49835;BME280;35729;52.090;13.162;2023-11-21T10:08:00;100902.16;;;3.79;100.00
49835;BME280;35729;52.090;13.162;2023-11-21T10:10:32;100909.09;;;3.81;100.00
49835;BME280;35729;52.090;13.162;2023-11-21T10:13:02;100909.13;;;3.84;100.00
49835;BME280;35729;52.090;13.162;2023-11-21T10:15:34;100914.34;;;3.86;100.00
49835;BME280;35729;52.090;13.162;2023-11-21T10:18:04;100910.88;;;3.87;100.00
49835;BME280;35729;52.090;13.162;2023-11-21T10:20:34;100906.56;;;3.89;100.00
49835;BME280;35729;52.090;13.162;2023-11-21T10:23:04;100913.50;;;3.90;100.00
49835;BME280;35729;52.090;13.162;2023-11-21T10:25:35;100914.38;;;3.92;100.00
49835;BME280;35729;52.090;13.162;2023-11-21T10:28:04;100915.25;;;3.92;100.00
49835;BME280;35729;52.090;13.162;2023-11-21T10:30:33;100907.44;;;3.89;100.00
49835;BME280;35729;52.090;13.162;2023-11-21T10:33:03;100917.00;;;3.94;100.00
49835;BME280;35729;52.090;13.162;2023-11-21T10:35:42;100919.59;;;3.95;100.00
49835;BME280;35729;52.090;13.162;2023-11-21T10:38:12;100923.94;;;3.99;100.00
49835;BME280;35729;52.090;13.162;2023-11-21T10:40:44;100919.63;;;4.01;100.00
49835;BME280;35729;52.090;13.162;2023-11-21T10:43:13;100924.84;;;4.03;100.00
49835;BME280;35729;52.090;13.162;2023-11-21T10:45:42;100921.38;;;4.01;100.00
49835;BME280;35729;52.090;13.162;2023-11-21T10:48:13;100920.50;;;3.99;100.00
49835;BME280;35729;52.090;13.162;2023-11-21T10:50:45;100925.69;;;3.99;100.00
49835;BME280;35729;52.090;13.162;2023-11-21T10:53:14;100928.22;;;3.94;100.00
49835;BME280;35729;52.090;13.162;2023-11-21T10:55:45;100938.59;;;3.89;100.00
49835;BME280;35729;52.090;13.162;2023-11-21T10:58:14;100929.06;;;3.87;100.00
49835;BME280;35729;52.090;13.162;2023-11-21T11:00:43;100936.84;;;3.88;100.00
49835;BME280;35729;52.090;13.162;2023-11-21T11:03:13;100937.69;;;3.87;100.00
49835;BME280;35729;52.090;13.162;2023-11-21T11:05:43;100942.00;;;3.85;100.00
49835;BME280;35729;52.090;13.162;2023-11-21T11:08:19;100951.53;;;3.86;100.00
49835;BME280;35729;52.090;13.162;2023-11-21T11:10:54;100945.47;;;3.86;100.00
49835;BME280;35729;52.090;13.162;2023-11-21T11:13:24;100950.69;;;3.89;100.00
49835;BME280;35729;52.090;13.162;2023-11-21T11:15:56;100942.03;;;3.90;100.00
49835;BME280;35729;52.090;13.162;2023-11-21T11:18:27;100948.13;;;3.92;100.00
49835;BME280;35729;52.090;13.162;2023-11-21T11:21:01;100945.53;;;3.90;100.00
49835;BME280;35729;52.090;13.162;2023-11-21T11:23:48;100960.25;;;3.93;100.00
49835;BME280;35729;52.090;13.162;2023-11-21T11:26:28;100958.53;;;3.92;100.00
49835;BME280;35729;52.090;13.162;2023-11-21T11:29:08;100954.13;;;3.85;100.00
49835;BME280;35729;52.090;13.162;2023-11-21T11:31:50;100963.69;;;3.90;100.00
49835;BME280;35729;52.090;13.162;2023-11-21T11:34:26;100974.09;;;3.90;100.00
49835;BME280;35729;52.090;13.162;2023-11-21T11:37:01;100976.69;;;3.92;100.00
49835;BME280;35729;52.090;13.162;2023-11-21T11:39:32;100980.13;;;3.91;100.00
49835;BME280;35729;52.090;13.162;2023-11-21T11:42:08;100980.97;;;3.90;100.00
49835;BME280;35729;52.090;13.162;2023-11-21T11:44:50;100982.72;;;3.89;100.00
49835;BME280;35729;52.090;13.162;2023-11-21T11:47:24;100989.66;;;3.90;100.00
49835;BME280;35729;52.090;13.162;2023-11-21T11:50:00;100992.28;;;3.94;100.00
49835;BME280;35729;52.090;13.162;2023-11-21T11:52:36;100990.53;;;3.94;100.00
49835;BME280;35729;52.090;13.162;2023-11-21T11:55:07;100995.75;;;3.96;100.00
49835;BME280;35729;52.090;13.162;2023-11-21T11:57:41;100996.63;;;3.98;100.00
49835;BME280;35729;52.090;13.162;2023-11-21T12:00:14;101001.81;;;3.95;100.00
49835;BME280;35729;52.090;13.162;2023-11-21T12:02:48;101007.84;;;3.92;100.00
49835;BME280;35729;52.090;13.162;2023-11-21T12:05:18;101013.03;;;3.95;100.00
49835;BME280;35729;52.090;13.162;2023-11-21T12:07:49;101020.00;;;3.98;100.00
49835;BME280;35729;52.090;13.162;2023-11-21T12:10:20;101017.41;;;3.99;100.00
49835;BME280;35729;52.090;13.162;2023-11-21T12:12:54;101020.00;;;3.99;100.00
49835;BME280;35729;52.090;13.162;2023-11-21T12:15:24;101028.69;;;3.98;100.00
49835;BME280;35729;52.090;13.162;2023-11-21T12:17:54;101023.50;;;4.00;100.00
49835;BME280;35729;52.090;13.162;2023-11-21T12:20:24;101029.53;;;4.00;100.00
49835;BME280;35729;52.090;13.162;2023-11-21T12:22:54;101030.38;;;3.99;100.00
49835;BME280;35729;52.090;13.162;2023-11-21T12:25:26;101045.09;;;3.97;100.00
49835;BME280;35729;52.090;13.162;2023-11-21T12:27:58;101045.03;;;3.91;100.00
49835;BME280;35729;52.090;13.162;2023-11-21T12:30:29;101047.56;;;3.85;100.00
49835;BME280;35729;52.090;13.162;2023-11-21T12:32:59;101047.56;;;3.83;100.00
49835;BME280;35729;52.090;13.162;2023-11-21T12:35:30;101055.34;;;3.83;100.00
49835;BME280;35729;52.090;13.162;2023-11-21T12:38:00;101050.97;;;3.81;100.00
49835;BME280;35729;52.090;13.162;2023-11-21T12:40:29;101062.22;;;3.81;100.00
49835;BME280;35729;52.090;13.162;2023-11-21T12:43:00;101058.78;;;3.81;100.00
49835;BME280;35729;52.090;13.162;2023-11-21T12:45:30;101055.31;;;3.82;100.00
49835;BME280;35729;52.090;13.162;2023-11-21T12:48:00;101062.22;;;3.80;100.00
49835;BME280;35729;52.090;13.162;2023-11-21T12:50:33;101063.03;;;3.75;100.00
49835;BME280;35729;52.090;13.162;2023-11-21T12:53:03;101064.72;;;3.73;100.00
49835;BME280;35729;52.090;13.162;2023-11-21T12:55:34;101062.13;;;3.72;100.00